Valentia, Spain

12:41 AM CEST die 28o April, anno 2017 (GMT +0200)
Carcaixent | | Change Station

Elev 0 ft 39.12 °N, 0.45 °W | Updated 3 minutes ago

Aequaliter Nubila
Aequaliter Nubila
55.2 °F
Feels Like 55.2 °F
N
0.0
Ventus Variabilis Ventus from Aquilo
Gusts 1.2 mph

Hodie
High -- | Low -- °F
--% Chance of Precip.
Yesterday
High -- | Low -- °F
Precip. -- in
Pressio 30.06 in
Visibilitas 6.2 milia passuum
Clouds Few 1800 ft
Nubes Dispersae 3000 ft
Frigus in quo Ros apparet 48 °F
Umor 76%
Rainfall 0.00 in
Snow Depth Not available.
7:07 AM 8:52 PM
Waxing Crescent, 3% visible
METAR LEVC 272230Z VRB01KT 9999 FEW018 SCT030 10/10 Q1018 NOSIG
Pressio 30.06 in
Visibilitas 6.2 milia passuum
Clouds Few 1800 ft
Nubes Dispersae 3000 ft
Frigus in quo Ros apparet 48 °F
Umor 76%
Rainfall 0.00 in
Snow Depth Not available.
7:07 AM 8:52 PM
Waxing Crescent, 3% visible
METAR LEVC 272230Z VRB01KT 9999 FEW018 SCT030 10/10 Q1018 NOSIG

Get Severe Weather Alerts

Thanks for signing up!

Be on the lookout for a verification email in your inbox.

You'll start receiving the daily forecast at 8 AM.

×

10-Day Weather Forecast

×

Almanac

Astronomy

Apr. 28, 2017 Rise Set
Actual Time
Civil Twilight
Nautical Twilight
Astronomical Twilight
Moon
Length Of Visible Light
Length of Day
Tomorrow will be .
, % of the Moon is Illuminated

Today's Extremes

Country Highs Country Lows

Community

WunderPhotos

WunderBlog® & News

Nearby

Air Quality

  Air Quality AQ Index Pollutant
Not available.

Snow Depth

Station Depth Elevation

Earthquake Activity

City Distance Mag. Time & Date
Minimum magnitude displayed is 2.5.

Coastal Water Temperatures

Locus Calor

Stations

Nearby Weather Stations

Station Location Temp Frigus Venti Frigus in quo Ros apparet Umor Ventus Precip. Elev Renovata Type